createdAt,value
2023-06-10T06:05:27.480Z,91.83
2023-06-10T06:10:29.609Z,91.86
2023-06-10T06:15:31.739Z,91.61
2023-06-10T06:20:33.836Z,91.30
2023-06-10T06:25:36.754Z,90.66
2023-06-10T06:30:38.880Z,90.27
2023-06-10T06:35:41.332Z,89.73
2023-06-10T06:40:43.551Z,89.74
2023-06-10T06:45:46.260Z,89.58
2023-06-10T06:50:48.361Z,89.48
2023-06-10T06:55:50.475Z,88.95
2023-06-10T07:00:52.652Z,88.25
2023-06-10T07:05:54.877Z,87.03
2023-06-10T07:10:57.022Z,86.64
2023-06-10T07:15:59.168Z,85.42
2023-06-10T07:21:01.551Z,83.99
2023-06-10T07:26:03.857Z,81.86
2023-06-10T07:31:06.157Z,80.72
2023-06-10T07:36:08.543Z,80.08
2023-06-10T07:41:11.867Z,79.44
2023-06-10T07:46:14.053Z,79.57
2023-06-10T07:51:17.707Z,79.69
2023-06-10T07:56:21.799Z,79.44
2023-06-10T08:01:25.522Z,78.74
2023-06-10T08:06:27.754Z,78.59
2023-06-10T08:11:30.855Z,77.72
2023-06-10T08:16:33.066Z,76.79
2023-06-10T08:21:35.268Z,76.31
2023-06-10T08:26:37.586Z,75.16
2023-06-10T08:31:43.907Z,74.05
2023-06-10T08:36:46.656Z,71.41
2023-06-10T08:42:19.671Z,71.54
2023-06-10T08:47:24.382Z,70.22
2023-06-10T08:52:30.532Z,69.25
2023-06-10T08:57:32.661Z,69.09
2023-06-10T09:02:36.588Z,69.44
2023-06-10T09:07:39.679Z,69.42
2023-06-10T09:12:41.812Z,69.44
2023-06-10T09:17:44.534Z,68.94
2023-06-10T09:22:46.874Z,68.67
2023-06-10T09:27:55.322Z,68.66
2023-06-10T09:32:59.783Z,69.69
2023-06-10T09:38:03.456Z,70.28
2023-06-10T09:43:05.722Z,71.08
2023-06-10T09:48:08.111Z,72.33
2023-06-10T09:53:11.397Z,72.58
2023-06-10T09:58:13.515Z,73.17
2023-06-10T10:03:24.334Z,73.43
2023-06-10T10:08:26.860Z,75.44
2023-06-10T10:13:29.416Z,73.73
2023-06-10T10:18:32.716Z,70.74
2023-06-10T10:24:02.439Z,70.52
2023-06-10T10:29:21.145Z,69.23
2023-06-10T10:34:31.880Z,70.01
2023-06-10T10:39:36.293Z,68.56
2023-06-10T10:44:41.958Z,66.70
2023-06-10T10:49:46.123Z,66.15
2023-06-10T10:54:48.866Z,63.05
2023-06-10T10:59:52.686Z,60.39
2023-06-10T11:04:56.259Z,60.54
2023-06-10T11:10:15.174Z,59.70
2023-06-10T11:15:24.811Z,60.44
2023-06-10T11:20:46.278Z,62.44
2023-06-10T11:25:48.435Z,64.40
2023-06-10T11:30:58.741Z,65.77
2023-06-10T11:36:01.014Z,65.34
2023-06-10T11:41:04.126Z,66.47
2023-06-10T11:46:09.272Z,65.77
2023-06-10T11:51:11.492Z,65.04
2023-06-10T11:56:13.864Z,64.88
2023-06-10T12:01:28.263Z,62.72
2023-06-10T12:06:45.882Z,60.00
2023-06-10T12:11:53.507Z,58.02
2023-06-10T12:16:57.523Z,56.71
2023-06-10T12:22:02.223Z,55.77
2023-06-10T12:27:04.479Z,53.83
2023-06-10T12:32:08.493Z,54.62
2023-06-10T12:37:14.768Z,52.90
2023-06-10T12:42:16.962Z,51.33
2023-06-10T12:47:19.093Z,54.39
2023-06-10T12:52:21.319Z,54.69
2023-06-10T12:57:23.928Z,53.30
2023-06-10T13:02:26.024Z,52.55
2023-06-10T13:07:28.148Z,51.71
2023-06-10T13:12:38.319Z,50.88
2023-06-10T13:17:51.566Z,50.85
2023-06-10T13:22:53.918Z,53.41
2023-06-10T13:27:56.727Z,55.05
2023-06-10T13:32:58.942Z,55.40
2023-06-10T13:38:01.223Z,54.38
2023-06-10T13:43:03.750Z,52.25
2023-06-10T13:48:07.044Z,51.71
2023-06-10T13:53:09.205Z,53.35
2023-06-10T13:58:11.315Z,53.70
2023-06-10T14:03:13.511Z,52.58
2023-06-10T14:08:15.817Z,53.40
2023-06-10T14:13:18.519Z,54.94
2023-06-10T14:18:20.605Z,55.75
2023-06-10T14:23:22.767Z,58.19
2023-06-10T14:28:25.161Z,58.45
2023-06-10T14:33:27.279Z,59.25
2023-06-10T14:38:29.498Z,60.62
2023-06-10T14:43:31.725Z,60.78
2023-06-10T14:48:33.803Z,61.14
2023-06-10T14:53:36.015Z,61.40
2023-06-10T14:58:38.117Z,59.95
2023-06-10T15:03:40.290Z,61.20
2023-06-10T15:08:42.509Z,62.13
2023-06-10T15:13:44.696Z,63.21
2023-06-10T15:18:46.857Z,63.65
2023-06-10T15:23:49.000Z,66.62
2023-06-10T15:28:51.161Z,67.72
2023-06-10T15:33:53.274Z,67.95
2023-06-10T15:38:57.091Z,69.69
2023-06-10T15:44:02.263Z,69.46
2023-06-10T15:49:04.830Z,70.05
2023-06-10T15:54:06.963Z,72.26
2023-06-10T15:59:10.047Z,73.52
2023-06-10T16:04:12.255Z,74.28
2023-06-10T16:09:14.426Z,75.08
2023-06-10T16:14:16.558Z,75.15
2023-06-10T16:19:18.811Z,74.78
